Time;durP1;ratioP1;P1;durP2;ratioP2;P2;SDS_P1;SDS_P2;PMS_P1;PMS_P2;Temp;Humidity;BMP_temperature;BMP_pressure;BME280_temperature;BME280_humidity;BME280_pressure;Samples;Min_cycle;Max_cycle;Signal;HPM_P1;HPM_P2
2023/08/26 00:09:27;;;;;;;25.98;17.75;;;;;;;19.61;100.00;100765.09;20371791;28;20050;-60
2023/08/26 00:19:50;;;;;;;26.25;19.38;;;;;;;19.57;100.00;100750.53;20338479;28;20142;-60
2023/08/26 00:30:12;;;;;;;27.65;19.25;;;;;;;19.54;100.00;100750.72;20364449;28;20054;-60
2023/08/26 00:40:36;;;;;;;29.27;19.70;;;;;;;19.42;100.00;100745.47;20355617;28;20419;-60
2023/08/26 00:50:58;;;;;;;28.23;18.92;;;;;;;19.30;100.00;100751.53;20349867;28;20051;-60
2023/08/26 01:01:20;;;;;;;31.60;21.25;;;;;;;19.21;100.00;100757.41;20354816;28;20051;-60
2023/08/26 01:11:57;;;;;;;30.15;20.98;;;;;;;19.23;100.00;100760.75;20362975;28;20063;-60
2023/08/26 01:22:22;;;;;;;34.03;21.67;;;;;;;19.19;100.00;100769.78;20353052;28;20411;-60
2023/08/26 01:33:20;;;;;;;36.65;21.65;;;;;;;19.18;100.00;100774.16;20365246;28;20527;-60
2023/08/26 01:43:42;;;;;;;32.72;22.40;;;;;;;19.18;100.00;100768.06;20372932;28;21139;-60
2023/08/26 01:54:07;;;;;;;37.33;23.00;;;;;;;19.21;100.00;100757.41;20375488;28;20043;-60
2023/08/26 02:04:29;;;;;;;32.38;21.90;;;;;;;19.12;100.00;100750.13;20379646;28;20060;-60
2023/08/26 02:14:51;;;;;;;28.05;19.58;;;;;;;19.10;100.00;100770.38;20374844;28;20598;-60
2023/08/26 02:25:14;;;;;;;29.60;19.50;;;;;;;19.08;100.00;100780.13;20300195;28;20480;-60
2023/08/26 02:35:36;;;;;;;24.13;17.75;;;;;;;19.04;100.00;100772.44;20318649;28;20048;-60
2023/08/26 02:45:58;;;;;;;27.80;17.45;;;;;;;19.00;100.00;100778.00;20311628;28;20044;-60
2023/08/26 02:56:20;;;;;;;24.05;18.48;;;;;;;18.96;100.00;100782.63;20307673;28;20047;-60
2023/08/26 03:06:41;;;;;;;30.38;21.40;;;;;;;18.95;100.00;100787.97;20312990;28;20073;-60
2023/08/26 03:17:03;;;;;;;32.13;22.55;;;;;;;18.84;100.00;100778.16;20305026;28;20057;-60
2023/08/26 03:27:25;;;;;;;38.33;21.92;;;;;;;18.74;100.00;100803.31;20294588;28;20049;-60
2023/08/26 03:37:47;;;;;;;45.45;20.58;;;;;;;18.55;100.00;100800.16;20293341;28;20056;-60
2023/08/26 03:48:08;;;;;;;24.33;17.70;;;;;;;18.51;100.00;100803.09;20286095;28;20055;-60
2023/08/26 03:58:30;;;;;;;26.83;16.90;;;;;;;18.38;100.00;100812.63;20300924;28;20049;-60
2023/08/26 04:08:52;;;;;;;24.42;16.08;;;;;;;18.28;100.00;100814.13;20310718;28;20048;-60
2023/08/26 04:19:14;;;;;;;22.23;14.63;;;;;;;18.19;100.00;100822.53;20311574;28;20697;-59
2023/08/26 04:29:35;;;;;;;18.83;14.23;;;;;;;18.08;100.00;100831.91;20305702;28;20113;-60
2023/08/26 04:39:57;;;;;;;18.00;13.43;;;;;;;17.93;100.00;100839.84;20289658;28;20060;-59
2023/08/26 04:50:18;;;;;;;26.58;13.70;;;;;;;17.73;100.00;100850.66;20292327;28;20045;-59
2023/08/26 05:00:41;;;;;;;24.98;13.20;;;;;;;17.63;100.00;100860.00;20280057;28;20056;-60
2023/08/26 05:11:05;;;;;;;20.05;13.75;;;;;;;17.49;100.00;100865.19;20272146;28;20055;-60
2023/08/26 05:21:27;;;;;;;18.92;12.18;;;;;;;17.54;100.00;100871.00;20293591;28;20063;-59
2023/08/26 05:31:49;;;;;;;15.88;10.85;;;;;;;17.50;100.00;100874.72;20274231;28;20044;-59
2023/08/26 05:42:10;;;;;;;18.80;10.05;;;;;;;17.45;100.00;100881.97;20307136;28;20062;-60
2023/08/26 05:52:32;;;;;;;16.55;8.88;;;;;;;17.35;100.00;100886.03;20310281;28;20538;-60
2023/08/26 06:02:53;;;;;;;12.80;9.02;;;;;;;17.36;100.00;100882.50;20286708;28;20044;-60
2023/08/26 06:13:15;;;;;;;11.52;7.22;;;;;;;17.49;100.00;100896.59;20312775;28;20409;-60
2023/08/26 06:23:37;;;;;;;13.52;7.18;;;;;;;17.56;100.00;100905.78;20302751;28;20056;-60
2023/08/26 06:33:58;;;;;;;18.83;6.47;;;;;;;17.68;99.97;100902.44;20296949;28;20064;-60
2023/08/26 06:44:20;;;;;;;9.50;6.57;;;;;;;17.64;98.59;100921.88;20278228;28;20078;-60
2023/08/26 06:54:42;;;;;;;12.38;6.18;;;;;;;17.75;98.84;100929.94;20298342;28;20040;-60
2023/08/26 07:05:04;;;;;;;10.20;5.25;;;;;;;17.73;96.81;100945.75;20298987;28;20047;-60
2023/08/26 07:15:25;;;;;;;8.77;5.80;;;;;;;17.72;97.76;100951.06;20282841;28;20063;-60
2023/08/26 07:25:47;;;;;;;8.65;5.10;;;;;;;17.70;96.62;100966.88;20309636;28;20040;-60
2023/08/26 07:36:12;;;;;;;8.85;4.80;;;;;;;17.80;96.15;100975.06;20305320;28;20044;-60
2023/08/26 07:46:33;;;;;;;11.02;5.55;;;;;;;17.94;95.07;100970.72;20263679;28;20058;-60
2023/08/26 07:57:00;;;;;;;12.00;6.45;;;;;;;18.10;94.11;100975.88;20609166;28;20046;-60
2023/08/26 08:07:21;;;;;;;12.23;6.68;;;;;;;18.18;94.88;100957.94;20609839;28;20049;-60
2023/08/26 08:17:43;;;;;;;9.32;6.40;;;;;;;18.42;92.77;100974.84;20623982;28;20042;-60
2023/08/26 08:28:05;;;;;;;12.93;6.05;;;;;;;18.50;93.39;100979.63;20598757;28;20125;-60
2023/08/26 08:38:26;;;;;;;9.65;6.22;;;;;;;18.25;93.37;100990.69;20619662;28;20387;-60
2023/08/26 08:48:48;;;;;;;10.05;5.03;;;;;;;17.89;93.32;101008.56;20601236;28;20046;-60
2023/08/26 08:59:11;;;;;;;6.43;3.10;;;;;;;17.84;91.50;101021.06;20585539;28;20045;-60
2023/08/26 09:09:33;;;;;;;4.22;3.42;;;;;;;17.99;90.58;101022.81;20542763;28;80429;-61
2023/08/26 09:20:10;;;;;;;7.68;4.72;;;;;;;18.11;91.22;101023.88;20435388;28;20081;-61
2023/08/26 09:30:32;;;;;;;8.18;6.05;;;;;;;18.18;91.61;101026.06;20542811;28;20202;-61
2023/08/26 09:40:58;;;;;;;11.70;8.73;;;;;;;18.50;89.72;101032.03;20518684;28;20059;-61
2023/08/26 09:51:25;;;;;;;12.15;8.57;;;;;;;18.62;90.11;101041.81;20547672;28;20050;-61
2023/08/26 10:01:48;;;;;;;11.30;9.27;;;;;;;18.70;89.70;101044.81;20548884;28;20098;-61
2023/08/26 10:12:19;;;;;;;15.80;8.82;;;;;;;19.00;86.80;101056.91;20567230;28;20047;-61
2023/08/26 10:22:41;;;;;;;12.07;7.50;;;;;;;18.90;85.83;101068.91;20556121;28;20182;-66
2023/08/26 10:33:05;;;;;;;10.20;4.72;;;;;;;19.04;82.50;101073.31;20542748;28;20043;-61
2023/08/26 10:43:26;;;;;;;9.80;4.78;;;;;;;19.30;80.71;101071.72;20560313;28;20173;-61
2023/08/26 10:53:51;;;;;;;9.68;4.85;;;;;;;19.47;81.63;101067.13;20542579;28;20046;-61
2023/08/26 11:04:13;;;;;;;6.10;4.18;;;;;;;19.72;80.40;101071.66;20559073;28;20050;-61
2023/08/26 11:14:34;;;;;;;7.07;4.60;;;;;;;19.90;81.54;101083.63;20545046;28;20046;-61
2023/08/26 11:24:56;;;;;;;9.85;5.30;;;;;;;19.68;77.79;101084.16;20548360;28;20043;-61
2023/08/26 11:35:18;;;;;;;7.65;4.45;;;;;;;19.77;75.68;101085.34;20555951;28;20040;-61
2023/08/26 11:45:42;;;;;;;5.80;3.70;;;;;;;19.84;78.57;101094.50;20543034;28;20077;-61
2023/08/26 11:56:04;;;;;;;6.63;3.60;;;;;;;20.15;76.47;101073.19;20563035;28;20084;-61
2023/08/26 12:06:26;;;;;;;6.53;2.70;;;;;;;20.46;74.70;101083.41;20536839;28;20641;-61
2023/08/26 12:17:01;;;;;;;4.95;2.20;;;;;;;20.63;70.15;101085.75;20527495;28;20200;-61
2023/08/26 12:27:25;;;;;;;5.00;2.22;;;;;;;20.66;70.53;101080.25;20558085;28;20053;-61
2023/08/26 12:37:46;;;;;;;5.03;1.83;;;;;;;20.53;74.38;101076.78;20559785;28;20053;-61
2023/08/26 12:48:08;;;;;;;5.32;1.75;;;;;;;20.62;74.06;101073.53;20541920;28;20045;-61
2023/08/26 12:58:29;;;;;;;8.10;1.42;;;;;;;20.87;72.42;101084.09;20534147;28;20089;-61
2023/08/26 13:08:51;;;;;;;7.90;1.55;;;;;;;20.82;71.87;101077.44;20538934;28;20451;-61
2023/08/26 13:19:13;;;;;;;4.22;1.17;;;;;;;21.17;71.97;101090.84;20536135;28;20542;-61
2023/08/26 13:29:34;;;;;;;4.63;1.00;;;;;;;21.34;71.61;101072.91;20533534;28;20047;-62
2023/08/26 13:39:56;;;;;;;4.03;1.25;;;;;;;21.53;72.39;101064.53;20583074;28;20052;-61
2023/08/26 13:50:18;;;;;;;2.53;1.00;;;;;;;21.58;70.30;101054.50;20565826;28;20043;-62
2023/08/26 14:00:39;;;;;;;2.90;0.80;;;;;;;21.73;65.55;101056.03;20566334;28;20045;-61
2023/08/26 14:11:01;;;;;;;3.05;0.90;;;;;;;21.79;66.28;101064.34;20535653;28;20039;-62
2023/08/26 14:21:23;;;;;;;2.78;1.08;;;;;;;22.07;64.69;101051.81;20533646;28;20132;-61
2023/08/26 14:31:45;;;;;;;3.63;0.88;;;;;;;21.98;64.32;101069.13;20515007;28;21602;-61
2023/08/26 14:42:06;;;;;;;3.92;1.02;;;;;;;21.94;68.68;101067.66;20521892;28;20059;-61
2023/08/26 14:52:28;;;;;;;1.67;0.85;;;;;;;22.05;64.73;101073.00;20532537;28;20066;-61
2023/08/26 15:02:50;;;;;;;5.20;1.00;;;;;;;22.16;62.42;101073.03;20541049;28;20047;-61
2023/08/26 15:13:12;;;;;;;1.55;0.70;;;;;;;22.15;67.34;101071.38;20541264;28;20186;-61
2023/08/26 15:23:34;;;;;;;4.65;1.27;;;;;;;22.24;66.40;101060.13;20532042;28;20558;-59
2023/08/26 15:33:55;;;;;;;1.80;0.77;;;;;;;22.16;65.67;101053.75;20526973;28;20392;-61
2023/08/26 15:44:18;;;;;;;3.88;0.93;;;;;;;22.13;69.32;101041.63;20478796;28;20380;-60
2023/08/26 15:54:39;;;;;;;2.08;1.00;;;;;;;22.07;67.33;101038.63;20457053;28;20054;-60
2023/08/26 16:05:01;;;;;;;3.47;0.98;;;;;;;22.00;69.76;101040.88;20479928;28;20043;-60
2023/08/26 16:15:23;;;;;;;6.70;1.23;;;;;;;21.93;66.67;101060.72;20496183;28;20047;-60
2023/08/26 16:25:45;;;;;;;3.92;0.63;;;;;;;21.91;66.84;101062.63;20489946;28;20073;-61
2023/08/26 16:36:06;;;;;;;1.05;0.70;;;;;;;21.95;66.77;101074.63;20479627;28;20165;-61
2023/08/26 16:46:28;;;;;;;1.67;0.73;;;;;;;21.79;66.97;101085.44;20487278;28;20065;-60
2023/08/26 16:56:50;;;;;;;2.70;0.80;;;;;;;21.48;65.78;101085.09;20485159;28;20046;-62
2023/08/26 17:07:13;;;;;;;1.17;0.90;;;;;;;21.22;67.83;101100.09;20487538;28;20980;-61
2023/08/26 17:17:35;;;;;;;4.38;1.73;;;;;;;20.88;70.85;101108.59;20543139;28;20042;-62
2023/08/26 17:27:56;;;;;;;2.53;1.00;;;;;;;20.58;72.85;101119.41;20550700;28;20506;-61
2023/08/26 17:38:18;;;;;;;3.40;1.25;;;;;;;20.39;74.79;101134.72;20568774;28;20387;-61
2023/08/26 17:48:41;;;;;;;5.75;1.45;;;;;;;20.21;77.46;101125.41;20516514;28;20059;-62
2023/08/26 17:59:02;;;;;;;2.78;1.23;;;;;;;19.89;78.91;101135.31;20522491;28;20058;-62
2023/08/26 18:09:24;;;;;;;2.25;0.98;;;;;;;19.56;78.39;101131.31;20512876;28;20046;-61
2023/08/26 18:19:46;;;;;;;1.00;0.90;;;;;;;19.28;80.07;101141.81;20507679;28;20051;-61
2023/08/26 18:30:08;;;;;;;1.70;1.13;;;;;;;19.08;80.23;101157.94;20521248;28;20047;-62
2023/08/26 18:40:30;;;;;;;2.17;0.90;;;;;;;18.88;81.61;101149.44;20514266;28;20058;-61
2023/08/26 18:51:03;;;;;;;3.38;0.80;;;;;;;18.69;82.27;101161.97;20502863;28;20066;-62
2023/08/26 19:01:24;;;;;;;1.10;1.00;;;;;;;18.58;83.12;101187.97;20483829;28;20158;-60
2023/08/26 19:11:46;;;;;;;1.25;1.08;;;;;;;18.58;83.08;101190.59;20484776;28;20053;-61
2023/08/26 19:22:08;;;;;;;1.75;1.40;;;;;;;18.53;83.98;101189.97;20494870;28;20047;-60
2023/08/26 19:32:29;;;;;;;2.22;1.27;;;;;;;18.55;83.88;101193.34;20498065;28;20051;-61
2023/08/26 19:42:51;;;;;;;2.33;1.40;;;;;;;18.47;84.17;101179.00;20511246;28;20055;-61
2023/08/26 19:53:13;;;;;;;5.45;1.20;;;;;;;18.37;84.54;101173.41;20511784;28;20097;-61
2023/08/26 20:03:34;;;;;;;2.50;1.30;;;;;;;18.29;85.19;101180.88;20519016;28;20050;-60
2023/08/26 20:13:56;;;;;;;1.50;1.05;;;;;;;18.17;85.22;101175.44;20536756;28;20046;-61
2023/08/26 20:24:18;;;;;;;1.75;1.38;;;;;;;18.16;84.45;101199.97;20533009;28;20047;-61
2023/08/26 20:34:39;;;;;;;1.65;1.00;;;;;;;18.21;84.16;101197.94;20522776;28;20046;-61
2023/08/26 20:45:01;;;;;;;1.10;1.02;;;;;;;18.17;84.33;101192.03;20515296;28;20038;-61
2023/08/26 20:55:23;;;;;;;1.30;1.20;;;;;;;18.11;85.10;101160.09;20506671;28;20046;-61
2023/08/26 21:05:45;;;;;;;2.38;1.52;;;;;;;18.08;85.66;101150.63;20502384;28;20074;-61
2023/08/26 21:16:07;;;;;;;2.63;1.33;;;;;;;18.02;85.64;101143.09;20507070;28;20109;-61
2023/08/26 21:26:29;;;;;;;1.40;1.27;;;;;;;18.00;85.28;101145.81;20509827;28;20500;-61
2023/08/26 21:36:50;;;;;;;1.83;1.33;;;;;;;17.90;87.03;101130.69;20519791;28;20061;-63
2023/08/26 21:47:12;;;;;;;1.70;1.30;;;;;;;17.68;87.69;101141.50;20510679;28;20050;-61
2023/08/26 21:57:33;;;;;;;2.63;1.80;;;;;;;17.54;87.99;101127.47;20502242;28;20054;-61
2023/08/26 22:07:55;;;;;;;1.73;1.42;;;;;;;17.41;88.70;101115.94;20518527;28;20051;-60
2023/08/26 22:18:17;;;;;;;2.72;2.05;;;;;;;17.33;89.53;101112.88;20494733;28;20053;-61
2023/08/26 22:28:43;;;;;;;3.63;1.77;;;;;;;17.25;89.78;101102.00;20529257;28;20047;-61
2023/08/26 22:39:05;;;;;;;2.45;1.98;;;;;;;17.14;90.29;101101.72;20523355;28;20053;-60
2023/08/26 22:49:40;;;;;;;2.30;2.10;;;;;;;17.03;91.44;101116.19;20526261;28;20043;-61
2023/08/26 23:00:03;;;;;;;3.47;2.33;;;;;;;16.98;91.08;101106.88;20525203;28;20086;-60
2023/08/26 23:10:25;;;;;;;3.30;2.03;;;;;;;17.00;90.44;101111.13;20525867;28;20042;-62
2023/08/26 23:20:46;;;;;;;2.67;2.20;;;;;;;16.88;91.82;101121.38;20540122;28;20117;-61
2023/08/26 23:31:08;;;;;;;3.63;2.60;;;;;;;16.81;91.84;101120.81;20545720;28;20130;-61
2023/08/26 23:41:30;;;;;;;4.53;2.53;;;;;;;16.70;91.96;101111.84;20534402;28;20047;-61
2023/08/26 23:51:51;;;;;;;6.25;2.90;;;;;;;16.64;92.39;101102.56;20524901;28;20038;-60
